Time;durP1;ratioP1;P1;durP2;ratioP2;P2;SDS_P1;SDS_P2;PMS_P1;PMS_P2;Temp;Humidity;BMP_temperature;BMP_pressure;BME280_temperature;BME280_humidity;BME280_pressure;Samples;Min_cycle;Max_cycle;Signal;HPM_P1;HPM_P2
2023/12/01 00:01:24;;;;;;;8.50;5.28;;;;;;;;;;5034380;28;20198;-87
2023/12/01 00:03:50;;;;;;;11.60;4.70;;;;;;;;;;5022960;28;20198;-83
2023/12/01 00:06:16;;;;;;;14.45;6.13;;;;;;;;;;5031511;28;20639;-88
2023/12/01 00:08:42;;;;;;;9.23;5.25;;;3.50;99.90;;;;;;5020298;28;20205;-86
2023/12/01 00:11:10;;;;;;;9.33;4.13;;;3.40;99.90;;;;;;5017330;28;20182;-87
2023/12/01 00:13:37;;;;;;;6.78;5.15;;;;;;;;;;5012367;28;20229;-85
2023/12/01 00:16:03;;;;;;;11.70;6.10;;;;;;;;;;5018899;28;20216;-89
2023/12/01 00:18:29;;;;;;;13.90;5.28;;;;;;;;;;5019943;28;20240;-85
2023/12/01 00:20:55;;;;;;;10.13;4.60;;;;;;;;;;5020938;28;20217;-88
2023/12/01 00:23:21;;;;;;;9.32;4.70;;;;;;;;;;5021357;28;20548;-85
2023/12/01 00:25:47;;;;;;;8.00;4.07;;;;;;;;;;5021736;28;20217;-88
2023/12/01 00:28:14;;;;;;;5.43;2.95;;;;;;;;;;5019609;28;20202;-86
2023/12/01 00:30:40;;;;;;;8.73;3.95;;;;;;;;;;5015886;28;20188;-87
2023/12/01 00:33:06;;;;;;;6.82;5.97;;;;;;;;;;5010920;28;20251;-89
2023/12/01 00:35:32;;;;;;;16.27;6.65;;;;;;;;;;5020639;28;20177;-89
2023/12/01 00:37:58;;;;;;;9.88;5.78;;;;;;;;;;5014922;28;20181;-87
2023/12/01 00:40:24;;;;;;;13.50;5.65;;;2.70;99.90;;;;;;5013803;28;20224;-88
2023/12/01 00:42:50;;;;;;;7.53;4.50;;;;;;;;;;5018695;28;20224;-85
2023/12/01 00:45:17;;;;;;;7.10;4.53;;;;;;;;;;5031046;28;20235;-88
2023/12/01 00:47:43;;;;;;;13.23;4.95;;;;;;;;;;5013338;28;20182;-87
2023/12/01 00:50:09;;;;;;;12.77;6.60;;;;;;;;;;5010262;28;20273;-86
2023/12/01 00:52:35;;;;;;;10.60;5.40;;;;;;;;;;5018603;28;20237;-85
2023/12/01 00:55:01;;;;;;;10.75;5.32;;;;;;;;;;5014350;28;20186;-88
2023/12/01 00:57:27;;;;;;;14.00;5.30;;;;;;;;;;5016747;28;20200;-87
2023/12/01 00:59:53;;;;;;;9.20;5.40;;;3.20;99.90;;;;;;5016761;28;20202;-87
2023/12/01 01:02:19;;;;;;;11.30;4.75;;;;;;;;;;5015303;28;20212;-85
2023/12/01 01:04:45;;;;;;;9.77;6.53;;;;;;;;;;5012912;28;20177;-89
2023/12/01 01:07:12;;;;;;;13.73;5.32;;;;;;;;;;5015169;28;20460;-87
2023/12/01 01:09:39;;;;;;;8.38;3.67;;;3.40;99.90;;;;;;5017924;28;20193;-83
2023/12/01 01:12:05;;;;;;;13.63;5.80;;;;;;;;;;5019059;28;20206;-85
2023/12/01 01:14:31;;;;;;;9.27;5.80;;;;;;;;;;5028295;28;20186;-85
2023/12/01 01:16:57;;;;;;;7.75;3.95;;;;;;;;;;5022431;28;20190;-88
2023/12/01 01:19:23;;;;;;;6.25;4.03;;;;;;;;;;5019614;28;20268;-88
2023/12/01 01:21:50;;;;;;;10.90;6.22;;;;;;;;;;5021044;28;20186;-88
2023/12/01 01:24:16;;;;;;;20.90;5.47;;;;;;;;;;5012888;28;20228;-88
2023/12/01 01:26:44;;;;;;;6.20;5.38;;;3.10;99.90;;;;;;5032772;28;20182;-87
2023/12/01 01:29:10;;;;;;;10.35;5.53;;;;;;;;;;5011557;28;20272;-88
2023/12/01 01:31:37;;;;;;;9.40;5.25;;;3.10;99.90;;;;;;5018745;28;20221;-87
2023/12/01 01:34:03;;;;;;;10.00;6.20;;;;;;;;;;5012584;28;20233;-87
2023/12/01 01:36:30;;;;;;;9.32;5.07;;;;;;;;;;5014728;28;20269;-86
2023/12/01 01:38:56;;;;;;;40.80;5.82;;;;;;;;;;5017482;28;20199;-87
2023/12/01 01:41:22;;;;;;;12.95;6.35;;;;;;;;;;5016074;28;20174;-83
2023/12/01 01:43:48;;;;;;;8.98;4.32;;;;;;;;;;5032012;28;20190;-86
2023/12/01 01:46:14;;;;;;;9.70;5.45;;;;;;;;;;5015301;28;20178;-84
2023/12/01 01:48:42;;;;;;;10.63;5.82;;;3.10;99.90;;;;;;5020633;28;20225;-84
2023/12/01 01:51:12;;;;;;;8.40;4.82;;;;;;;;;;5016164;28;20240;-87
2023/12/01 01:53:41;;;;;;;9.00;5.72;;;3.10;99.90;;;;;;5021751;28;20232;-87
2023/12/01 01:56:08;;;;;;;9.57;4.07;;;4.10;99.90;;;;;;5023395;28;20330;-87
2023/12/01 01:58:34;;;;;;;10.35;5.78;;;;;;;;;;5015246;28;20208;-88
2023/12/01 02:01:00;;;;;;;17.92;6.13;;;;;;;;;;5019299;28;20294;-86
2023/12/01 02:03:26;;;;;;;9.30;6.38;;;;;;;;;;5022356;28;20173;-87
2023/12/01 02:05:52;;;;;;;17.02;6.25;;;;;;;;;;5018735;28;20239;-87
2023/12/01 02:08:26;;;;;;;8.60;6.20;;;2.90;99.90;;;;;;5018600;28;20296;-87
2023/12/01 02:10:57;;;;;;;9.10;5.05;;;2.80;99.90;;;;;;5018021;28;20810;-85
2023/12/01 02:13:23;;;;;;;9.38;4.22;;;;;;;;;;5012290;28;20206;-87
2023/12/01 02:15:50;;;;;;;11.05;6.53;;;;;;;;;;5017310;28;20201;-87
2023/12/01 02:18:23;;;;;;;8.35;4.60;;;2.60;99.90;;;;;;5017148;28;20183;-85
2023/12/01 02:20:53;;;;;;;8.10;5.57;;;2.50;99.90;;;;;;5017127;28;20247;-88
2023/12/01 02:23:19;;;;;;;11.32;5.50;;;2.50;99.90;;;;;;5030075;28;20182;-86
2023/12/01 02:25:45;;;;;;;9.98;5.30;;;2.10;99.90;;;;;;5016134;28;20732;-87
2023/12/01 02:28:11;;;;;;;11.50;4.77;;;;;;;;;;5014563;28;20224;-85
2023/12/01 02:30:38;;;;;;;8.35;4.95;;;2.20;99.90;;;;;;5017722;28;20202;-88
2023/12/01 02:33:04;;;;;;;6.90;3.95;;;;;;;;;;5013589;28;20349;-87
2023/12/01 02:35:30;;;;;;;12.77;6.45;;;;;;;;;;5012381;28;20286;-87
2023/12/01 02:37:56;;;;;;;12.43;5.60;;;2.50;99.90;;;;;;5011145;28;20192;-87
2023/12/01 02:40:23;;;;;;;7.70;4.30;;;2.40;99.90;;;;;;5017189;28;20208;-85
2023/12/01 02:42:49;;;;;;;10.30;5.85;;;;;;;;;;5028082;28;20178;-86
2023/12/01 02:45:15;;;;;;;12.65;6.35;;;;;;;;;;5009929;28;20248;-87
2023/12/01 02:47:43;;;;;;;11.88;4.93;;;2.30;99.90;;;;;;5016429;28;20193;-87
2023/12/01 02:50:09;;;;;;;13.07;6.55;;;1.50;99.90;;;;;;5013937;28;20236;-85
2023/12/01 02:52:36;;;;;;;9.98;3.42;;;2.10;99.90;;;;;;5011998;28;20209;-85
2023/12/01 02:55:02;;;;;;;11.25;5.18;;;1.30;99.90;;;;;;5011298;28;20181;-87
2023/12/01 02:57:30;;;;;;;15.30;4.97;;;2.10;99.90;;;;;;5028882;28;20182;-87
2023/12/01 02:59:56;;;;;;;4.63;4.07;;;1.90;99.90;;;;;;5011332;28;20203;-87
2023/12/01 03:02:23;;;;;;;8.07;4.87;;;2.10;99.90;;;;;;5022218;28;20193;-88
2023/12/01 03:04:49;;;;;;;9.60;4.80;;;;;;;;;;5013385;28;20179;-85
2023/12/01 03:07:16;;;;;;;8.20;4.53;;;;;;;;;;5010929;28;20186;-89
2023/12/01 03:09:42;;;;;;;5.53;4.25;;;;;;;;;;5008374;28;20515;-87
2023/12/01 03:12:08;;;;;;;10.90;4.37;;;;;;;;;;5008432;28;20221;-86
2023/12/01 03:14:37;;;;;;;6.80;4.23;;;1.60;99.90;;;;;;5023537;28;20420;-87
2023/12/01 03:17:03;;;;;;;7.20;5.13;;;1.50;99.90;;;;;;5022628;28;20424;-86
2023/12/01 03:19:31;;;;;;;4.27;3.87;;;1.40;99.90;;;;;;5026122;28;20282;-87
2023/12/01 03:21:57;;;;;;;8.27;4.20;;;;;;;;;;5019804;28;21502;-87
2023/12/01 03:24:23;;;;;;;5.43;4.63;;;;;;;;;;5021406;28;20805;-86
2023/12/01 03:26:49;;;;;;;5.57;3.90;;;;;;;;;;5030071;28;20457;-89
2023/12/01 03:29:15;;;;;;;7.43;4.50;;;;;;;;;;5009408;28;20647;-88
2023/12/01 03:31:41;;;;;;;12.83;6.13;;;;;;;;;;5003454;28;22216;-85
2023/12/01 03:34:07;;;;;;;10.47;5.27;;;;;;;;;;5003247;28;20494;-85
2023/12/01 03:36:33;;;;;;;13.60;4.17;;;;;;;;;;5017507;28;21013;-83
2023/12/01 03:38:59;;;;;;;11.48;5.40;;;1.20;99.90;;;;;;5000058;28;20476;-85
2023/12/01 03:41:25;;;;;;;7.80;4.53;;;;;;;;;;5019502;28;20213;-83
2023/12/01 03:43:51;;;;;;;4.63;4.23;;;;;;;;;;5022617;28;20442;-83
2023/12/01 03:46:16;;;;;;;10.50;4.93;;;1.00;99.90;;;;;;5011011;28;20445;-85
2023/12/01 03:48:42;;;;;;;9.77;4.70;;;;;;;;;;5006088;28;20219;-83
2023/12/01 03:51:11;;;;;;;9.93;4.00;;;;;;;;;;5013037;28;20182;-83
2023/12/01 03:53:37;;;;;;;6.10;3.90;;;1.10;99.90;;;;;;5016386;28;20252;-86
2023/12/01 03:56:04;;;;;;;9.88;4.72;;;1.10;99.90;;;;;;5019290;28;20272;-86
2023/12/01 03:58:32;;;;;;;6.45;3.95;;;1.10;99.90;;;;;;5006363;28;20182;-86
2023/12/01 04:00:58;;;;;;;13.48;5.43;;;;;;;;;;5015824;28;20664;-85
2023/12/01 04:03:29;;;;;;;7.23;5.90;;;1.20;99.90;;;;;;5014276;28;20203;-84
2023/12/01 04:06:01;;;;;;;6.20;4.30;;;1.20;99.90;;;;;;5017158;28;20466;-84
2023/12/01 04:08:27;;;;;;;7.20;4.05;;;1.20;99.90;;;;;;5007480;28;20471;-84
2023/12/01 04:10:55;;;;;;;6.45;5.07;;;;;;;;;;5004656;28;20874;-85
2023/12/01 04:13:22;;;;;;;9.20;5.55;;;;;;;;;;5019379;28;20296;-84
2023/12/01 04:15:47;;;;;;;5.45;4.20;;;;;;;;;;5012762;28;20186;-84
2023/12/01 04:18:16;;;;;;;15.57;6.00;;;1.30;99.90;;;;;;5000896;28;20213;-84
2023/12/01 04:20:42;;;;;;;15.60;6.72;;;1.30;99.90;;;;;;5008910;28;20182;-84
2023/12/01 04:23:09;;;;;;;8.43;4.50;;;1.30;99.90;;;;;;5013644;28;20212;-84
2023/12/01 04:25:46;;;;;;;9.88;5.22;;;1.30;99.90;;;;;;4998714;28;20186;-86
2023/12/01 04:28:13;;;;;;;8.20;5.75;;;1.30;99.90;;;;;;5012680;28;20643;-85
2023/12/01 04:30:40;;;;;;;12.27;5.55;;;1.30;99.90;;;;;;4995845;28;20216;-85
2023/12/01 04:33:06;;;;;;;6.65;4.95;;;1.40;99.90;;;;;;5005021;28;20231;-84
2023/12/01 04:35:34;;;;;;;6.00;4.82;;;1.30;99.90;;;;;;5000459;28;20186;-84
2023/12/01 04:38:03;;;;;;;11.13;5.38;;;1.30;99.90;;;;;;5011668;28;20186;-83
2023/12/01 04:40:29;;;;;;;13.32;5.50;;;1.30;99.90;;;;;;5000772;28;20212;-85
2023/12/01 04:42:56;;;;;;;10.77;5.97;;;1.40;99.90;;;;;;5021021;28;20565;-86
2023/12/01 04:45:24;;;;;;;9.82;4.95;;;1.40;99.90;;;;;;5010149;28;20193;-84
2023/12/01 04:47:51;;;;;;;9.55;5.40;;;1.30;99.90;;;;;;5007087;28;20389;-84
2023/12/01 04:50:19;;;;;;;13.90;5.78;;;1.30;99.90;;;;;;5018866;28;20213;-86
2023/12/01 04:52:50;;;;;;;11.27;5.63;;;1.30;99.90;;;;;;5003054;28;20202;-84
2023/12/01 04:55:18;;;;;;;9.07;6.35;;;1.30;99.90;;;;;;5000836;28;20813;-84
2023/12/01 04:57:44;;;;;;;14.73;6.50;;;1.30;99.90;;;;;;4994917;28;20200;-87
2023/12/01 05:00:31;;;;;;;8.45;5.90;;;1.40;99.90;;;;;;5002252;28;20512;-86
2023/12/01 05:03:19;;;;;;;;;;;;;;;;;;;;;
2023/12/01 05:06:25;;;;;;;10.48;4.55;;;1.60;99.90;;;;;;5020966;28;20185;-86
2023/12/01 05:09:55;;;;;;;15.45;7.97;;;1.60;99.90;;;;;;4988113;28;20224;-87
2023/12/01 05:13:09;;;;;;;5.80;4.38;;;1.50;99.90;;;;;;4926345;28;20466;-85
2023/12/01 05:15:48;;;;;;;7.03;4.72;;;1.50;99.90;;;;;;4926248;28;20206;-85
2023/12/01 05:18:29;;;;;;;10.55;4.70;;;1.60;99.90;;;;;;4922503;28;20200;-84
2023/12/01 05:20:58;;;;;;;21.15;5.65;;;1.50;99.90;;;;;;4992348;28;20194;-86
2023/12/01 05:23:57;;;;;;;11.35;5.25;;;1.50;99.90;;;;;;5014509;28;20187;-82
2023/12/01 05:26:34;;;;;;;15.25;5.70;;;1.50;99.90;;;;;;5005623;28;20191;-85
2023/12/01 05:29:13;;;;;;;19.55;6.97;;;1.50;99.90;;;;;;5018771;28;20748;-85
2023/12/01 05:31:41;;;;;;;7.72;4.43;;;1.50;99.90;;;;;;5011816;28;20238;-84
2023/12/01 05:34:13;;;;;;;19.08;7.47;;;1.50;99.90;;;;;;5001796;28;20263;-88
2023/12/01 05:37:02;;;;;;;17.58;8.25;;;1.50;99.90;;;;;;5005147;28;20190;-85
2023/12/01 05:39:56;;;;;;;17.35;6.70;;;1.70;99.90;;;;;;5010649;28;20650;-82
2023/12/01 05:42:24;;;;;;;16.20;8.00;;;;;;;;;;5029630;28;20190;-85
2023/12/01 05:45:18;;;;;;;18.40;7.18;;;1.50;99.90;;;;;;5006645;28;20194;-86
2023/12/01 05:47:45;;;;;;;11.52;6.78;;;1.40;99.90;;;;;;4995293;28;20186;-85
2023/12/01 05:50:12;;;;;;;11.52;8.40;;;;;;;;;;5013720;28;20233;-85
2023/12/01 05:52:59;;;;;;;14.50;8.57;;;1.60;99.90;;;;;;5016063;28;22139;-85
2023/12/01 05:55:29;;;;;;;26.20;7.32;;;1.60;99.90;;;;;;5001698;28;20183;-85
2023/12/01 05:58:01;;;;;;;16.88;8.23;;;1.60;99.90;;;;;;5002045;28;20644;-85
2023/12/01 06:00:34;;;;;;;21.55;10.43;;;1.30;99.90;;;;;;5016314;28;20217;-85
2023/12/01 06:03:09;;;;;;;14.02;8.27;;;1.50;99.90;;;;;;5022090;28;20234;-86
2023/12/01 06:05:36;;;;;;;19.95;9.07;;;1.60;99.90;;;;;;5007214;28;20182;-84
2023/12/01 06:08:03;;;;;;;16.15;6.93;;;1.30;99.90;;;;;;5002670;28;20574;-86
2023/12/01 06:10:31;;;;;;;15.48;7.35;;;1.60;99.90;;;;;;5011496;28;20198;-87
2023/12/01 06:12:57;;;;;;;20.65;8.15;;;0.80;99.90;;;;;;5010170;28;20205;-86
2023/12/01 06:15:24;;;;;;;10.57;6.43;;;1.70;99.90;;;;;;5022702;28;20695;-84
2023/12/01 06:17:53;;;;;;;10.38;6.93;;;;;;;;;;5020871;28;20457;-87
2023/12/01 06:20:22;;;;;;;16.08;6.95;;;1.70;99.90;;;;;;5040285;28;20198;-86
2023/12/01 06:22:53;;;;;;;16.55;7.70;;;1.50;99.90;;;;;;5007863;28;20207;-85
2023/12/01 06:25:20;;;;;;;17.88;7.90;;;1.60;99.90;;;;;;5007220;28;20175;-81
2023/12/01 06:27:47;;;;;;;18.77;7.05;;;1.50;99.90;;;;;;5012795;28;20180;-85
2023/12/01 06:30:14;;;;;;;8.63;7.15;;;1.50;99.90;;;;;;5017410;28;20860;-82
2023/12/01 06:32:46;;;;;;;22.65;8.77;;;1.50;99.90;;;;;;5010680;28;20228;-84
2023/12/01 06:35:14;;;;;;;13.75;7.78;;;1.60;99.90;;;;;;5011245;28;20182;-82
2023/12/01 06:37:41;;;;;;;16.25;6.70;;;1.60;99.90;;;;;;4995552;28;20244;-85
2023/12/01 06:40:15;;;;;;;19.55;8.70;;;1.60;99.90;;;;;;5005867;28;21569;-82
2023/12/01 06:42:52;;;;;;;14.73;6.72;;;1.70;99.90;;;;;;5004239;28;20200;-86
2023/12/01 06:45:19;;;;;;;19.52;8.52;;;1.60;99.90;;;;;;5017353;28;20271;-84
2023/12/01 06:47:47;;;;;;;24.15;8.82;;;1.60;99.90;;;;;;5021546;28;20189;-82
2023/12/01 06:50:14;;;;;;;15.70;6.15;;;1.50;99.90;;;;;;5004617;28;20807;-85
2023/12/01 06:52:40;;;;;;;12.65;7.57;;;1.50;99.90;;;;;;5024208;28;20240;-84
2023/12/01 06:55:07;;;;;;;15.35;9.88;;;1.60;99.90;;;;;;5014444;28;20182;-81
2023/12/01 06:57:38;;;;;;;16.60;7.47;;;1.60;99.90;;;;;;5007135;28;20205;-82
2023/12/01 07:00:07;;;;;;;9.05;6.80;;;1.50;99.90;;;;;;5019782;28;20222;-83
2023/12/01 07:02:34;;;;;;;15.50;9.18;;;1.50;99.90;;;;;;5020331;28;20194;-83
2023/12/01 07:04:59;;;;;;;15.68;7.95;;;1.60;99.90;;;;;;5011097;28;20652;-85
2023/12/01 07:07:30;;;;;;;17.93;7.87;;;1.50;99.90;;;;;;5010529;28;20209;-83
2023/12/01 07:09:56;;;;;;;7.65;5.18;;;1.60;99.90;;;;;;5004803;28;20214;-81
2023/12/01 07:12:22;;;;;;;11.95;5.82;;;1.60;99.90;;;;;;5009343;28;20231;-87
2023/12/01 07:14:48;;;;;;;24.67;7.90;;;;;;;;;;5019877;28;20186;-84
2023/12/01 07:17:14;;;;;;;13.10;7.25;;;1.70;99.90;;;;;;5017475;28;20170;-80
2023/12/01 07:19:40;;;;;;;14.60;7.23;;;;;;;;;;5020100;28;20689;-85
2023/12/01 07:22:24;;;;;;;14.50;7.23;;;;;;;;;;5021240;28;20464;-80
2023/12/01 07:25:41;;;;;;;;;;;;;;;;;;;;;
2023/12/01 07:28:11;;;;;;;14.98;6.35;;;1.40;99.90;;;;;;5020983;28;20273;-83
2023/12/01 07:30:41;;;;;;;11.98;7.30;;;2.80;99.90;;;;;;5007569;28;20233;-81
2023/12/01 07:33:14;;;;;;;17.25;8.52;;;1.40;99.90;;;;;;5007556;28;20300;-84
2023/12/01 07:35:40;;;;;;;16.30;7.32;;;;;;;;;;5001315;28;20222;-84
2023/12/01 07:38:15;;;;;;;15.73;4.50;;;1.40;99.90;;;;;;5006285;28;20182;-83
2023/12/01 07:40:42;;;;;;;24.10;8.45;;;1.50;99.90;;;;;;5018293;28;20236;-83
2023/12/01 07:43:08;;;;;;;22.15;5.35;;;;;;;;;;5012910;28;20209;-81
2023/12/01 07:45:35;;;;;;;32.08;7.78;;;1.40;99.90;;;;;;5000207;28;20220;-82
2023/12/01 07:48:00;;;;;;;12.85;6.80;;;1.60;99.90;;;;;;5000779;28;20748;-84
2023/12/01 07:50:26;;;;;;;11.83;7.67;;;1.10;99.90;;;;;;5015918;28;20248;-81
2023/12/01 07:52:51;;;;;;;10.63;5.30;;;1.30;99.90;;;;;;5017888;28;20263;-78
2023/12/01 07:55:19;;;;;;;20.43;5.37;;;1.30;99.90;;;;;;5026354;28;20193;-80
2023/12/01 07:57:46;;;;;;;22.63;4.38;;;1.40;99.90;;;;;;5003948;28;20192;-80
2023/12/01 08:00:16;;;;;;;11.50;5.63;;;1.30;99.90;;;;;;5009690;28;20229;-79
2023/12/01 08:02:51;;;;;;;15.45;5.28;;;1.20;99.90;;;;;;5017046;28;20182;-79
2023/12/01 08:05:17;;;;;;;9.15;7.10;;;1.30;99.90;;;;;;5014208;28;20181;-81
2023/12/01 08:07:51;;;;;;;7.57;3.93;;;1.30;99.90;;;;;;5018113;28;20281;-80
2023/12/01 08:10:20;;;;;;;15.52;6.35;;;1.40;99.90;;;;;;5024052;28;20463;-81
2023/12/01 08:12:47;;;;;;;11.52;6.78;;;1.40;99.90;;;;;;4998783;28;20324;-85
2023/12/01 08:15:13;;;;;;;13.77;5.28;;;1.50;99.90;;;;;;5017861;28;20192;-86
2023/12/01 08:17:40;;;;;;;13.73;5.40;;;1.60;99.90;;;;;;5006756;28;20185;-84
2023/12/01 08:20:06;;;;;;;13.38;6.53;;;1.70;99.90;;;;;;5001359;28;20264;-85
2023/12/01 08:22:33;;;;;;;8.55;4.97;;;1.70;99.90;;;;;;5000244;28;20189;-83
2023/12/01 08:24:59;;;;;;;10.02;4.88;;;1.50;99.90;;;;;;5005428;28;20189;-79
2023/12/01 08:27:25;;;;;;;18.10;7.55;;;1.40;99.90;;;;;;5010587;28;20192;-83
2023/12/01 08:29:51;;;;;;;20.50;8.23;;;1.40;99.90;;;;;;5001997;28;20611;-83
2023/12/01 08:32:17;;;;;;;6.40;4.38;;;1.50;99.90;;;;;;5016561;28;20186;-83
2023/12/01 08:34:43;;;;;;;11.67;8.13;;;1.50;99.90;;;;;;5017527;28;20255;-83
2023/12/01 08:37:08;;;;;;;12.67;7.17;;;1.40;99.90;;;;;;4992860;28;20528;-82
2023/12/01 08:39:34;;;;;;;11.67;5.83;;;1.30;99.90;;;;;;5014501;28;20746;-82
2023/12/01 08:41:59;;;;;;;12.87;7.90;;;1.20;99.90;;;;;;5008190;28;20748;-81
2023/12/01 08:44:25;;;;;;;11.10;5.20;;;1.10;99.90;;;;;;4996357;28;20178;-82
2023/12/01 08:46:51;;;;;;;13.37;6.80;;;1.40;99.90;;;;;;5006568;28;20228;-82
2023/12/01 08:49:16;;;;;;;13.67;7.80;;;1.60;99.90;;;;;;4996581;28;20208;-81
2023/12/01 08:51:42;;;;;;;12.13;6.10;;;1.70;99.90;;;;;;5020446;28;20189;-84
2023/12/01 08:54:10;;;;;;;16.17;7.53;;;1.90;99.90;;;;;;5004352;28;20206;-80
2023/12/01 08:56:36;;;;;;;13.82;4.25;;;1.90;99.90;;;;;;5012121;28;20231;-79
2023/12/01 08:59:09;;;;;;;11.67;6.53;;;;;;;;;;5021082;28;21106;-84
2023/12/01 09:01:35;;;;;;;28.23;8.27;;;;;;;;;;5017945;28;20200;-83
2023/12/01 09:04:01;;;;;;;16.57;7.10;;;;;;;;;;5002812;28;20182;-84
2023/12/01 09:06:27;;;;;;;17.43;6.00;;;;;;;;;;5018433;28;20859;-81
2023/12/01 09:08:55;;;;;;;17.33;7.40;;;2.10;99.90;;;;;;5006774;28;20452;-79
2023/12/01 09:11:23;;;;;;;15.98;6.88;;;2.10;99.90;;;;;;5017620;28;20469;-84
2023/12/01 09:13:48;;;;;;;16.00;7.18;;;2.40;99.90;;;;;;5018012;28;20216;-81
2023/12/01 09:16:15;;;;;;;11.87;8.07;;;;;;;;;;5007301;28;20195;-83
2023/12/01 09:18:48;;;;;;;19.23;9.43;;;;;;;;;;5011173;28;21019;-81
2023/12/01 09:21:25;;;;;;;17.83;8.45;;;2.50;99.90;;;;;;5005784;28;20186;-83
2023/12/01 09:23:51;;;;;;;20.13;10.05;;;;;;;;;;5003878;28;20181;-84
2023/12/01 09:26:17;;;;;;;18.35;8.18;;;2.20;99.90;;;;;;5009972;28;20218;-83
2023/12/01 09:28:44;;;;;;;25.20;9.73;;;0.00;99.90;;;;;;5025911;28;20201;-79
2023/12/01 09:31:13;;;;;;;16.85;6.82;;;3.20;99.90;;;;;;5017650;28;21910;-81
2023/12/01 09:33:43;;;;;;;16.83;7.25;;;2.20;99.90;;;;;;5002257;28;20575;-84
2023/12/01 09:36:10;;;;;;;13.07;5.63;;;2.50;99.90;;;;;;5019841;28;20187;-83
2023/12/01 09:38:36;;;;;;;22.90;9.88;;;;;;;;;;5015983;28;20190;-81
2023/12/01 09:41:03;;;;;;;25.73;9.70;;;2.40;99.90;;;;;;5002062;28;20185;-85
2023/12/01 09:43:31;;;;;;;20.85;8.57;;;2.50;99.90;;;;;;5002798;28;20188;-79
2023/12/01 09:46:01;;;;;;;23.48;9.05;;;5.00;99.90;;;;;;5003029;28;20269;-83
2023/12/01 09:48:37;;;;;;;13.48;7.13;;;2.30;99.90;;;;;;5020615;28;20193;-85
2023/12/01 09:51:04;;;;;;;20.00;8.55;;;;;;;;;;5004218;28;20198;-82
2023/12/01 09:53:32;;;;;;;16.17;7.00;;;2.40;99.90;;;;;;5018746;28;20202;-81
2023/12/01 09:55:58;;;;;;;20.33;11.05;;;2.00;99.90;;;;;;4998994;28;20190;-82
2023/12/01 09:58:26;;;;;;;25.67;11.60;;;2.50;99.90;;;;;;5001821;28;20194;-81
2023/12/01 10:00:52;;;;;;;25.10;8.57;;;3.80;99.90;;;;;;4998006;28;20194;-84
2023/12/01 10:03:18;;;;;;;32.87;11.23;;;;;;;;;;5013947;28;20512;-81
2023/12/01 10:05:45;;;;;;;22.33;9.10;;;;;;;;;;5017234;28;20190;-80
2023/12/01 10:08:11;;;;;;;22.05;9.57;;;;;;;;;;5019319;28;20489;-84
2023/12/01 10:10:38;;;;;;;13.60;6.93;;;;;;;;;;5004154;28;20276;-82
2023/12/01 10:13:04;;;;;;;27.73;10.88;;;2.50;99.90;;;;;;5018372;28;20202;-82
2023/12/01 10:15:38;;;;;;;19.35;9.10;;;2.50;99.90;;;;;;5027012;28;20264;-81
2023/12/01 10:18:11;;;;;;;22.55;9.10;;;2.60;99.90;;;;;;5018623;28;20182;-82
2023/12/01 10:20:39;;;;;;;19.63;7.72;;;2.50;99.90;;;;;;5013359;28;20193;-81
2023/12/01 10:23:18;;;;;;;27.00;10.75;;;2.30;99.90;;;;;;5008469;28;20194;-87
2023/12/01 10:25:51;;;;;;;19.90;8.55;;;2.30;99.90;;;;;;5007114;28;20189;-82
2023/12/01 10:28:18;;;;;;;20.15;7.82;;;2.00;99.90;;;;;;5016551;28;20614;-84
2023/12/01 10:30:57;;;;;;;22.00;8.43;;;1.90;99.90;;;;;;5015929;28;20218;-83
2023/12/01 10:33:25;;;;;;;25.02;10.13;;;2.10;99.90;;;;;;5002650;28;20209;-82
2023/12/01 10:36:02;;;;;;;18.50;8.25;;;2.00;99.90;;;;;;5010364;28;20245;-80
2023/12/01 10:38:33;;;;;;;16.52;6.35;;;2.00;99.90;;;;;;5007405;28;20185;-84
2023/12/01 10:40:59;;;;;;;18.20;7.63;;;2.00;99.90;;;;;;5004043;28;20190;-80
2023/12/01 10:43:27;;;;;;;34.03;10.90;;;2.00;99.90;;;;;;5007521;28;20182;-84
2023/12/01 10:45:53;;;;;;;29.42;11.10;;;2.20;99.90;;;;;;5016012;28;20186;-82
2023/12/01 10:48:20;;;;;;;32.75;10.18;;;2.30;99.90;;;;;;5005366;28;20196;-86
2023/12/01 10:50:49;;;;;;;20.23;9.25;;;2.40;99.90;;;;;;5005874;28;20209;-81
2023/12/01 10:53:16;;;;;;;15.57;6.72;;;2.40;99.90;;;;;;5016351;28;20205;-82
2023/12/01 10:55:47;;;;;;;26.73;8.82;;;2.40;99.90;;;;;;5000381;28;20190;-81
2023/12/01 10:58:22;;;;;;;24.70;9.38;;;2.60;99.90;;;;;;5004098;28;20174;-79
2023/12/01 11:00:50;;;;;;;15.23;8.10;;;2.70;99.90;;;;;;5038921;28;20181;-80
2023/12/01 11:03:23;;;;;;;13.05;7.43;;;2.30;99.90;;;;;;5023345;28;20198;-83
2023/12/01 11:06:01;;;;;;;13.98;5.65;;;2.30;99.90;;;;;;5009829;28;20276;-82
2023/12/01 11:08:59;;;;;;;19.08;8.50;;;2.30;99.90;;;;;;4995962;28;20186;-82
2023/12/01 11:11:43;;;;;;;17.05;6.95;;;2.30;99.90;;;;;;4997699;28;20178;-85
2023/12/01 11:14:17;;;;;;;14.93;6.72;;;2.20;99.90;;;;;;5014030;28;21359;-81
2023/12/01 11:16:47;;;;;;;19.88;9.25;;;2.10;99.90;;;;;;4996870;28;20277;-83
2023/12/01 11:19:13;;;;;;;16.98;8.02;;;2.10;99.90;;;;;;5004480;28;20221;-84
2023/12/01 11:21:42;;;;;;;20.40;9.13;;;2.00;99.90;;;;;;5006161;28;20688;-87
2023/12/01 11:24:33;;;;;;;13.43;5.65;;;1.90;99.90;;;;;;5006384;28;20531;-84
2023/12/01 11:27:06;;;;;;;15.82;9.05;;;1.90;99.90;;;;;;5003944;28;20260;-84
2023/12/01 11:29:36;;;;;;;14.68;6.97;;;2.20;99.90;;;;;;5001851;28;20209;-82
2023/12/01 11:32:05;;;;;;;18.95;8.98;;;1.90;99.90;;;;;;5006923;28;20230;-83
2023/12/01 11:34:31;;;;;;;7.72;5.55;;;2.20;99.90;;;;;;5005997;28;20810;-82
2023/12/01 11:36:58;;;;;;;12.63;7.67;;;2.20;99.90;;;;;;4996919;28;20192;-83
2023/12/01 11:39:27;;;;;;;22.77;7.95;;;2.30;99.90;;;;;;5016525;28;20210;-80
2023/12/01 11:42:02;;;;;;;23.63;6.88;;;2.20;99.90;;;;;;5007383;28;20232;-83
2023/12/01 11:44:34;;;;;;;16.70;6.72;;;2.30;99.90;;;;;;5013943;28;20193;-84
2023/12/01 11:47:02;;;;;;;13.93;8.52;;;2.30;99.90;;;;;;5000623;28;20198;-84
2023/12/01 11:49:32;;;;;;;14.57;7.10;;;2.30;99.90;;;;;;5017111;28;20231;-81
2023/12/01 11:51:58;;;;;;;28.73;12.68;;;2.30;99.90;;;;;;5011608;28;20190;-81
2023/12/01 11:54:24;;;;;;;19.67;8.20;;;2.60;99.90;;;;;;5005290;28;20206;-83
2023/12/01 11:56:55;;;;;;;16.83;8.77;;;2.40;99.90;;;;;;4998344;28;20198;-82
2023/12/01 11:59:38;;;;;;;16.42;7.85;;;2.40;99.90;;;;;;4999528;28;20461;-84
2023/12/01 12:02:05;;;;;;;16.52;6.90;;;;;;;;;;5002035;28;20174;-84
2023/12/01 12:04:42;;;;;;;;;;;;;;;;;;;;;
2023/12/01 12:07:08;;;;;;;9.80;6.10;;;;;;;;;;5013520;28;20199;-81
2023/12/01 12:09:45;;;;;;;11.93;6.07;;;2.20;99.90;;;;;;5002341;28;20304;-84
2023/12/01 12:12:37;;;;;;;13.40;6.90;;;1.90;99.90;;;;;;5016145;28;20897;-82
2023/12/01 12:15:26;;;;;;;17.20;7.25;;;1.70;99.90;;;;;;5003230;28;20221;-82
2023/12/01 12:25:52;;;;;;;17.67;7.63;;;2.10;99.90;;;;;;4955316;28;20254;-82
2023/12/01 12:34:20;;;;;;;9.85;5.45;;;1.60;99.90;;;;;;5013481;28;20225;-84
2023/12/01 12:37:02;;;;;;;15.15;8.05;;;;;;;;;;5008167;28;20202;-80
2023/12/01 12:39:34;;;;;;;15.07;4.68;;;1.40;99.90;;;;;;5015957;28;20209;-84
2023/12/01 12:42:20;;;;;;;10.75;6.22;;;1.40;99.90;;;;;;5006311;28;20217;-82
2023/12/01 12:48:13;;;;;;;18.88;7.80;;;1.40;99.90;;;;;;4933453;28;20264;-84
2023/12/01 12:50:48;;;;;;;10.65;4.55;;;1.30;99.90;;;;;;5013410;28;20217;-86
2023/12/01 12:53:20;;;;;;;15.88;6.10;;;;;;;;;;4996570;28;20213;-83
2023/12/01 12:55:48;;;;;;;5.63;3.22;;;1.20;99.90;;;;;;4999567;28;20202;-83
2023/12/01 12:58:14;;;;;;;12.45;8.02;;;;;;;;;;5013509;28;20182;-79
2023/12/01 13:00:42;;;;;;;15.67;5.37;;;;;;;;;;5013321;28;20213;-83
2023/12/01 13:03:08;;;;;;;11.93;5.53;;;1.20;99.90;;;;;;5001765;28;20441;-81
2023/12/01 13:05:34;;;;;;;12.10;6.93;;;;;;;;;;5016412;28;20225;-84
2023/12/01 13:08:00;;;;;;;10.13;4.28;;;;;;;;;;4997858;28;20204;-86
2023/12/01 13:10:37;;;;;;;15.05;6.07;;;1.30;99.90;;;;;;4994410;28;20206;-84
2023/12/01 13:13:11;;;;;;;10.90;7.20;;;1.10;99.90;;;;;;5013044;28;20216;-84
2023/12/01 13:15:39;;;;;;;13.30;6.35;;;0.40;99.90;;;;;;5013153;28;20185;-85
2023/12/01 13:18:10;;;;;;;10.70;6.13;;;;;;;;;;4997620;28;20183;-82
2023/12/01 13:20:36;;;;;;;17.75;5.32;;;1.30;99.90;;;;;;5015803;28;20201;-80
2023/12/01 13:23:01;;;;;;;13.70;6.83;;;1.30;99.90;;;;;;5014819;28;20199;-81
2023/12/01 13:25:27;;;;;;;14.00;5.63;;;1.30;99.90;;;;;;5006408;28;21314;-83
2023/12/01 13:27:53;;;;;;;13.80;6.00;;;1.30;99.90;;;;;;5000227;28;20194;-82
2023/12/01 13:30:18;;;;;;;24.00;9.40;;;1.40;99.90;;;;;;4994466;28;20232;-84
2023/12/01 13:32:44;;;;;;;11.47;5.33;;;;;;;;;;4997620;28;20220;-83
2023/12/01 13:35:10;;;;;;;17.83;5.47;;;1.60;99.90;;;;;;4995852;28;20193;-82
2023/12/01 13:37:41;;;;;;;19.17;8.90;;;1.50;99.90;;;;;;5017946;28;22700;-83
2023/12/01 13:40:08;;;;;;;7.03;5.40;;;1.60;99.90;;;;;;5000979;28;20825;-84
2023/12/01 13:42:35;;;;;;;16.23;7.82;;;1.30;99.90;;;;;;5005336;28;20634;-85
2023/12/01 13:45:02;;;;;;;16.73;7.97;;;1.30;99.90;;;;;;4999665;28;20197;-82
2023/12/01 13:47:30;;;;;;;13.57;5.57;;;1.30;99.90;;;;;;5014107;28;20256;-82
2023/12/01 13:49:56;;;;;;;10.40;4.80;;;1.50;99.90;;;;;;5018554;28;20675;-82
2023/12/01 13:52:24;;;;;;;17.47;8.43;;;;;;;;;;5015573;28;20193;-80